Time;durP1;ratioP1;P1;durP2;ratioP2;P2;SDS_P1;SDS_P2;PMS_P1;PMS_P2;Temp;Humidity;BMP_temperature;BMP_pressure;BME280_temperature;BME280_humidity;BME280_pressure;Samples;Min_cycle;Max_cycle;Signal;HPM_P1;HPM_P2
2022/05/28 00:00:50;;;;;;;8.33;3.20;;;;;;;;;;5005778;28;20627;-53
2022/05/28 00:03:18;;;;;;;5.17;2.30;;;;;;;;;;5007349;28;20706;-52
2022/05/28 00:05:44;;;;;;;6.27;2.60;;;;;;;;;;5011076;28;20542;-52
2022/05/28 00:08:11;;;;;;;6.00;2.50;;;;;;;;;;5013260;28;20543;-52
2022/05/28 00:10:37;;;;;;;5.33;2.40;;;;;;;;;;5026336;28;20729;-52
2022/05/28 00:13:03;;;;;;;5.63;2.90;;;;;;;;;;5010399;28;20576;-50
2022/05/28 00:15:30;;;;;;;6.13;3.23;;;;;;;;;;5009634;28;20182;-52
2022/05/28 00:17:59;;;;;;;5.37;3.10;;;;;;;;;;5028928;28;20586;-51
2022/05/28 00:20:25;;;;;;;8.27;2.90;;;;;;;;;;5027336;28;20214;-52
2022/05/28 00:22:51;;;;;;;3.53;2.57;;;;;;;;;;5027676;28;20190;-52
2022/05/28 00:25:17;;;;;;;5.30;3.10;;;;;;;;;;5027971;28;20182;-51
2022/05/28 00:27:44;;;;;;;7.43;3.50;;;;;;;;;;5025446;28;20613;-53
2022/05/28 00:30:12;;;;;;;4.47;2.67;;;;;;;;;;5008191;28;20276;-53
2022/05/28 00:32:40;;;;;;;7.70;2.77;;;;;;;;;;5022466;28;20614;-52
2022/05/28 00:35:08;;;;;;;4.93;2.87;;;;;;;;;;5017670;28;20194;-52
2022/05/28 00:37:34;;;;;;;4.53;2.60;;;;;;;;;;5010084;28;20228;-52
2022/05/28 00:40:04;;;;;;;4.63;2.43;;;;;;;;;;5023408;28;20210;-51
2022/05/28 00:42:30;;;;;;;6.20;3.40;;;;;;;;;;5041698;28;20190;-52
2022/05/28 00:44:57;;;;;;;5.27;3.00;;;;;;;;;;5015209;28;20282;-52
2022/05/28 00:47:23;;;;;;;5.77;2.87;;;;;;;;;;5009666;28;20189;-50
2022/05/28 00:49:49;;;;;;;6.00;3.03;;;;;;;;;;5019137;28;20244;-52
2022/05/28 00:52:16;;;;;;;5.50;2.77;;;;;;;;;;5009884;28;20221;-51
2022/05/28 00:54:43;;;;;;;5.47;2.63;;;;;;;;;;5026719;28;20259;-52
2022/05/28 00:57:10;;;;;;;6.80;2.77;;;;;;;;;;5028821;28;20189;-52
2022/05/28 00:59:37;;;;;;;6.50;2.70;;;;;;;;;;5007162;28;20190;-52
2022/05/28 01:02:07;;;;;;;6.83;2.87;;;;;;;;;;5027783;28;20659;-52
2022/05/28 01:04:46;;;;;;;5.90;2.53;;;;;;;;;;5023908;28;20529;-52
2022/05/28 01:07:21;;;;;;;4.67;2.60;;;;;;;;;;5009721;28;20189;-50
2022/05/28 01:10:26;;;;;;;5.67;2.70;;;;;;;;;;5026095;28;20199;-53
2022/05/28 01:13:31;;;;;;;8.50;3.70;;;;;;;;;;4935913;29;20200;-51
2022/05/28 01:16:09;;;;;;;7.90;3.63;;;;;;;;;;4870782;29;20277;-53
2022/05/28 01:18:46;;;;;;;4.43;2.53;;;;;;;;;;4915588;29;20209;-53
2022/05/28 01:21:22;;;;;;;6.53;2.70;;;;;;;;;;4974503;28;20338;-53
2022/05/28 01:23:55;;;;;;;5.30;2.83;;;;;;;;;;5015112;28;20189;-48
2022/05/28 01:26:31;;;;;;;8.43;3.43;;;;;;;;;;5007028;28;20201;-51
2022/05/28 01:29:00;;;;;;;7.80;2.87;;;;;;;;;;5025683;28;20272;-48
2022/05/28 01:31:27;;;;;;;6.90;2.77;;;;;;;;;;5008156;28;20545;-54
2022/05/28 01:33:54;;;;;;;4.33;2.50;;;;;;;;;;5026147;28;20184;-52
2022/05/28 01:36:20;;;;;;;6.07;2.50;;;;;;;;;;5026313;28;20182;-52
2022/05/28 01:38:48;;;;;;;8.87;2.80;;;;;;;;;;5025219;28;20539;-51
2022/05/28 01:41:15;;;;;;;5.33;2.90;;;;;;;;;;5026077;28;20268;-51
2022/05/28 01:43:43;;;;;;;5.80;2.70;;;;;;;;;;5026628;28;20165;-52
2022/05/28 01:46:10;;;;;;;4.23;2.27;;;;;;;;;;5006909;28;20186;-50
2022/05/28 01:48:37;;;;;;;6.93;2.50;;;;;;;;;;5017106;28;20179;-51
2022/05/28 01:51:04;;;;;;;7.10;2.47;;;;;;;;;;5024282;28;20188;-51
2022/05/28 01:56:16;;;;;;;7.40;2.60;;;;;;;;;;5024001;28;20205;-52
2022/05/28 01:58:42;;;;;;;6.47;2.87;;;;;;;;;;5025781;28;20262;-51
2022/05/28 02:01:09;;;;;;;8.93;2.80;;;;;;;;;;5024664;28;20201;-51
2022/05/28 02:03:37;;;;;;;4.23;2.60;;;;;;;;;;5017231;28;20191;-50
2022/05/28 02:06:03;;;;;;;6.43;2.83;;;;;;;;;;5025219;28;20190;-51
2022/05/28 02:08:30;;;;;;;4.37;2.57;;;;;;;;;;5022971;28;20541;-50
2022/05/28 02:11:05;;;;;;;4.90;2.63;;;;;;;;;;5025009;28;20726;-51
2022/05/28 02:13:39;;;;;;;6.13;2.80;;;;;;;;;;4991828;28;20196;-51
2022/05/28 02:16:12;;;;;;;7.13;2.93;;;;;;;;;;5024404;28;20193;-51
2022/05/28 02:18:54;;;;;;;5.83;2.87;;;;;;;;;;5016628;28;20209;-51
2022/05/28 02:21:20;;;;;;;5.57;3.13;;;;;;;;;;5024561;28;20675;-51
2022/05/28 02:23:59;;;;;;;5.37;2.70;;;;;;;;;;5022759;28;20181;-51
2022/05/28 02:26:31;;;;;;;10.60;2.90;;;;;;;;;;5036912;28;20178;-51
2022/05/28 02:29:00;;;;;;;4.07;2.50;;;;;;;;;;5013647;28;20557;-51
2022/05/28 02:31:28;;;;;;;4.97;2.43;;;;;;;;;;5022426;28;20190;-52
2022/05/28 02:33:55;;;;;;;4.80;2.30;;;;;;;;;;5013226;28;20254;-51
2022/05/28 02:36:21;;;;;;;7.20;2.50;;;;;;;;;;5024898;28;20186;-51
2022/05/28 02:38:47;;;;;;;6.83;2.77;;;;;;;;;;5026233;28;20685;-52
2022/05/28 02:41:13;;;;;;;6.47;2.67;;;;;;;;;;5035078;28;20208;-50
2022/05/28 02:43:40;;;;;;;4.63;2.60;;;;;;;;;;5026574;28;20186;-51
2022/05/28 02:46:07;;;;;;;3.30;2.33;;;;;;;;;;5022427;28;20198;-51
2022/05/28 02:48:33;;;;;;;5.97;2.30;;;;;;;;;;5026368;28;20170;-51
2022/05/28 02:51:07;;;;;;;4.57;2.37;;;;;;;;;;5025670;28;20240;-51
2022/05/28 02:53:35;;;;;;;3.40;2.30;;;;;;;;;;5024238;28;20193;-51
2022/05/28 02:56:02;;;;;;;5.60;2.83;;;;;;;;;;5013310;28;20209;-52
2022/05/28 02:58:29;;;;;;;3.00;1.93;;;;;;;;;;5021302;28;20225;-51
2022/05/28 03:00:56;;;;;;;5.70;2.83;;;;;;;;;;5006691;28;20203;-50
2022/05/28 03:03:22;;;;;;;4.93;3.20;;;;;;;;;;5025659;28;20177;-51
2022/05/28 03:05:49;;;;;;;6.27;2.40;;;;;;;;;;5024526;28;20255;-50
2022/05/28 03:08:16;;;;;;;5.03;2.30;;;;;;;;;;5017105;28;20257;-50
2022/05/28 03:10:42;;;;;;;5.83;3.10;;;;;;;;;;5016586;28;20229;-51
2022/05/28 03:13:11;;;;;;;5.50;2.87;;;;;;;;;;4999904;28;20187;-51
2022/05/28 03:15:38;;;;;;;5.67;2.70;;;;;;;;;;5014644;28;20177;-51
2022/05/28 03:18:04;;;;;;;6.87;2.87;;;;;;;;;;4995841;28;20222;-51
2022/05/28 03:20:31;;;;;;;4.67;2.50;;;;;;;;;;5024709;28;20213;-50
2022/05/28 03:22:58;;;;;;;5.17;2.70;;;;;;;;;;5017229;28;20240;-51
2022/05/28 03:25:24;;;;;;;6.57;2.30;;;;;;;;;;5003841;28;20184;-51
2022/05/28 03:27:50;;;;;;;6.73;2.80;;;;;;;;;;5022395;28;20704;-51
2022/05/28 03:30:17;;;;;;;5.43;2.70;;;;;;;;;;5011827;28;20659;-51
2022/05/28 03:32:43;;;;;;;4.43;2.47;;;;;;;;;;5025867;28;20221;-51
2022/05/28 03:35:10;;;;;;;5.30;2.60;;;;;;;;;;5017695;28;20229;-51
2022/05/28 03:37:36;;;;;;;4.97;2.90;;;;;;;;;;5024916;28;20612;-50
2022/05/28 03:40:03;;;;;;;6.63;2.60;;;;;;;;;;5020507;28;20543;-51
2022/05/28 03:42:29;;;;;;;5.30;2.70;;;;;;;;;;5027069;28;20217;-51
2022/05/28 03:44:55;;;;;;;4.63;2.80;;;;;;;;;;5025649;28;20174;-51
2022/05/28 03:47:21;;;;;;;4.90;3.10;;;;;;;;;;5029084;28;20185;-50
2022/05/28 03:49:47;;;;;;;9.17;2.93;;;;;;;;;;5017569;28;20647;-51
2022/05/28 03:52:16;;;;;;;7.23;2.30;;;;;;;;;;5009538;28;20181;-49
2022/05/28 03:54:46;;;;;;;5.80;2.97;;;;;;;;;;5025300;28;20608;-50
2022/05/28 03:57:14;;;;;;;4.97;2.43;;;;;;;;;;5030034;28;20201;-50
2022/05/28 03:59:41;;;;;;;5.77;2.43;;;;;;;;;;5010384;28;20695;-51
2022/05/28 04:02:07;;;;;;;7.20;2.70;;;;;;;;;;5025713;28;21388;-50
2022/05/28 04:04:33;;;;;;;5.83;2.67;;;;;;;;;;5025276;28;20181;-51
2022/05/28 04:07:02;;;;;;;4.00;2.40;;;;;;;;;;5027632;28;20643;-51
2022/05/28 04:09:29;;;;;;;5.63;2.97;;;;;;;;;;5025728;28;20186;-51
2022/05/28 04:11:55;;;;;;;4.43;2.50;;;;;;;;;;5024410;28;20248;-51
2022/05/28 04:14:21;;;;;;;5.43;2.30;;;;;;;;;;5024840;28;20239;-48
2022/05/28 04:16:48;;;;;;;5.27;2.43;;;;;;;;;;5026869;28;20619;-51
2022/05/28 04:19:14;;;;;;;4.47;2.50;;;;;;;;;;4995578;28;20556;-51
2022/05/28 04:21:40;;;;;;;8.07;2.83;;;;;;;;;;5027463;28;20391;-51
2022/05/28 04:24:07;;;;;;;7.20;2.70;;;;;;;;;;5025598;28;20188;-49
2022/05/28 04:26:33;;;;;;;4.77;2.40;;;;;;;;;;5027057;28;20220;-51
2022/05/28 04:28:59;;;;;;;6.00;2.70;;;;;;;;;;4997033;28;20182;-51
2022/05/28 04:31:26;;;;;;;3.00;2.37;;;;;;;;;;5024835;28;20192;-51
2022/05/28 04:33:53;;;;;;;5.70;2.63;;;;;;;;;;5027976;28;20233;-49
2022/05/28 04:36:19;;;;;;;6.93;2.30;;;;;;;;;;5010562;28;20197;-51
2022/05/28 04:38:46;;;;;;;4.73;2.60;;;;;;;;;;5006573;28;20248;-51
2022/05/28 04:41:12;;;;;;;5.23;2.20;;;;;;;;;;5005364;28;20209;-49
2022/05/28 04:43:38;;;;;;;3.70;2.40;;;;;;;;;;4995458;28;20628;-50
2022/05/28 04:46:04;;;;;;;3.70;2.20;;;;;;;;;;5021825;28;20185;-51
2022/05/28 04:48:31;;;;;;;8.70;2.60;;;;;;;;;;5018442;28;20216;-51
2022/05/28 04:50:57;;;;;;;5.60;2.80;;;;;;;;;;5003437;28;20190;-51
2022/05/28 04:53:23;;;;;;;4.47;2.33;;;;;;;;;;5025192;28;20301;-50
2022/05/28 04:55:49;;;;;;;6.70;2.93;;;;;;;;;;5025489;28;20190;-49
2022/05/28 04:58:16;;;;;;;4.40;2.30;;;;;;;;;;5024164;28;20252;-51
2022/05/28 05:00:43;;;;;;;5.77;3.47;;;;;;;;;;5007909;28;20217;-50
2022/05/28 05:03:10;;;;;;;7.03;2.80;;;;;;;;;;5021555;28;20465;-50
2022/05/28 05:05:37;;;;;;;4.57;2.03;;;;;;;;;;5000054;28;20186;-50
2022/05/28 05:08:03;;;;;;;6.33;2.57;;;;;;;;;;5006907;28;20181;-49
2022/05/28 05:10:30;;;;;;;4.67;2.50;;;;;;;;;;5026700;28;20581;-51
2022/05/28 05:12:56;;;;;;;5.47;2.53;;;;;;;;;;5028112;28;20194;-50
2022/05/28 05:15:22;;;;;;;6.97;2.37;;;;;;;;;;5007698;28;20619;-50
2022/05/28 05:17:48;;;;;;;4.57;2.53;;;;;;;;;;5006209;28;20513;-51
2022/05/28 05:20:15;;;;;;;4.43;2.60;;;;;;;;;;5013576;28;20221;-51
2022/05/28 05:22:41;;;;;;;6.03;2.83;;;;;;;;;;5023554;28;20187;-51
2022/05/28 05:25:08;;;;;;;5.50;2.60;;;;;;;;;;5014289;28;20209;-51
2022/05/28 05:27:35;;;;;;;6.10;3.00;;;;;;;;;;5007061;28;20209;-51
2022/05/28 05:30:02;;;;;;;5.40;2.77;;;;;;;;;;5003270;28;20680;-50
2022/05/28 05:32:28;;;;;;;6.33;2.77;;;;;;;;;;5008321;28;20193;-50
2022/05/28 05:34:54;;;;;;;5.30;2.50;;;;;;;;;;5023713;28;20253;-50
2022/05/28 05:37:20;;;;;;;6.83;3.17;;;;;;;;;;5026598;28;20184;-50
2022/05/28 05:39:47;;;;;;;6.07;2.53;;;;;;;;;;5022595;28;20178;-51
2022/05/28 05:42:13;;;;;;;5.90;3.37;;;;;;;;;;4990693;28;20586;-50
2022/05/28 05:44:39;;;;;;;5.20;2.63;;;;;;;;;;5021933;28;20178;-51
2022/05/28 05:47:06;;;;;;;5.27;2.50;;;;;;;;;;5026248;28;20602;-51
2022/05/28 05:49:32;;;;;;;7.07;3.10;;;;;;;;;;5024299;28;20272;-50
2022/05/28 05:51:59;;;;;;;5.60;2.70;;;;;;;;;;5007881;28;20278;-49
2022/05/28 05:54:25;;;;;;;5.27;3.00;;;;;;;;;;5022713;28;20701;-56
2022/05/28 05:56:52;;;;;;;10.53;2.93;;;;;;;;;;5006907;28;20243;-50
2022/05/28 05:59:19;;;;;;;4.87;2.60;;;;;;;;;;5004016;28;20182;-50
2022/05/28 06:01:45;;;;;;;6.67;3.03;;;;;;;;;;5025490;28;20224;-51
2022/05/28 06:04:11;;;;;;;5.87;2.80;;;;;;;;;;5015354;28;20179;-51
2022/05/28 06:06:37;;;;;;;8.23;2.37;;;;;;;;;;5011055;28;20644;-51
2022/05/28 06:09:05;;;;;;;4.10;2.63;;;;;;;;;;4999994;28;20194;-49
2022/05/28 06:11:31;;;;;;;6.93;3.17;;;;;;;;;;5005284;28;20229;-51
2022/05/28 06:13:57;;;;;;;10.20;3.93;;;;;;;;;;5004135;28;20193;-51
2022/05/28 06:16:23;;;;;;;7.40;2.57;;;;;;;;;;5005667;28;20706;-51
2022/05/28 06:18:50;;;;;;;4.43;2.50;;;;;;;;;;5007069;28;20174;-51
2022/05/28 06:21:16;;;;;;;5.77;2.67;;;;;;;;;;4989998;28;20706;-50
2022/05/28 06:23:42;;;;;;;5.60;3.00;;;;;;;;;;4987215;28;20182;-50
2022/05/28 06:26:09;;;;;;;7.50;2.43;;;;;;;;;;5007235;28;20575;-50
2022/05/28 06:28:36;;;;;;;7.20;2.43;;;;;;;;;;5003590;28;20591;-51
2022/05/28 06:31:06;;;;;;;6.83;2.60;;;;;;;;;;4988206;28;20194;-51
2022/05/28 06:33:33;;;;;;;6.27;3.50;;;;;;;;;;5004503;28;20565;-51
2022/05/28 06:36:00;;;;;;;6.63;3.17;;;;;;;;;;4988702;28;20232;-50
2022/05/28 06:38:27;;;;;;;2.63;2.33;;;;;;;;;;4989232;28;20680;-51
2022/05/28 06:40:53;;;;;;;4.97;2.37;;;;;;;;;;4982623;28;20644;-50
2022/05/28 06:43:20;;;;;;;4.67;2.53;;;;;;;;;;5003108;28;20174;-50
2022/05/28 06:45:46;;;;;;;5.57;2.20;;;;;;;;;;4995998;28;20274;-51
2022/05/28 06:48:13;;;;;;;5.87;2.57;;;;;;;;;;5007315;28;20882;-50
2022/05/28 06:53:24;;;;;;;4.17;2.50;;;;;;;;;;5004590;28;20229;-49
2022/05/28 06:55:52;;;;;;;3.53;2.40;;;;;;;;;;5004901;28;20288;-51
2022/05/28 06:58:18;;;;;;;3.90;1.83;;;;;;;;;;5002918;28;20183;-50
2022/05/28 07:00:45;;;;;;;4.40;1.73;;;;;;;;;;5004769;28;20239;-50
2022/05/28 07:03:15;;;;;;;5.30;2.27;;;;;;;;;;5004456;28;20240;-51
2022/05/28 07:05:42;;;;;;;3.70;2.13;;;;;;;;;;5004448;28;20626;-51
2022/05/28 07:08:09;;;;;;;1.70;1.53;;;;;;;;;;4986176;28;20191;-51
2022/05/28 07:10:38;;;;;;;4.93;1.80;;;;;;;;;;5010948;28;20229;-50
2022/05/28 07:13:07;;;;;;;6.13;2.33;;;;;;;;;;5002082;28;20627;-50
2022/05/28 07:15:34;;;;;;;5.73;2.27;;;;;;;;;;5009206;28;20192;-52
2022/05/28 07:18:00;;;;;;;4.77;2.27;;;;;;;;;;5004623;28;20305;-49
2022/05/28 07:20:26;;;;;;;3.30;1.70;;;;;;;;;;5008830;28;20210;-52
2022/05/28 07:22:53;;;;;;;3.43;2.00;;;;;;;;;;5004415;28;20174;-52
2022/05/28 07:25:19;;;;;;;5.87;1.80;;;;;;;;;;5022646;28;20705;-52
2022/05/28 07:27:45;;;;;;;4.27;1.93;;;;;;;;;;5025546;28;20377;-49
2022/05/28 07:30:11;;;;;;;3.90;1.80;;;;;;;;;;5006582;28;20182;-51
2022/05/28 07:32:37;;;;;;;6.43;1.87;;;;;;;;;;5027090;28;20194;-51
2022/05/28 07:35:04;;;;;;;3.00;1.60;;;;;;;;;;5005904;28;20190;-50
2022/05/28 07:37:30;;;;;;;4.13;1.63;;;;;;;;;;5028506;28;20726;-50
2022/05/28 07:39:57;;;;;;;4.27;1.93;;;;;;;;;;5002729;28;20237;-49
2022/05/28 07:42:23;;;;;;;4.63;2.00;;;;;;;;;;5022720;28;20186;-51
2022/05/28 07:44:49;;;;;;;5.03;2.00;;;;;;;;;;5024936;28;20606;-50
2022/05/28 07:47:16;;;;;;;2.37;1.50;;;;;;;;;;5010765;28;20193;-49
2022/05/28 07:49:42;;;;;;;1.90;1.57;;;;;;;;;;5024892;28;20614;-50
2022/05/28 07:52:08;;;;;;;3.57;2.10;;;;;;;;;;5005761;28;20221;-50
2022/05/28 07:54:34;;;;;;;4.27;1.70;;;;;;;;;;4999552;28;20269;-51
2022/05/28 07:57:01;;;;;;;3.83;1.53;;;;;;;;;;5027539;28;20213;-50
2022/05/28 07:59:29;;;;;;;2.67;1.60;;;;;;;;;;4995321;28;20640;-51
2022/05/28 08:01:55;;;;;;;2.97;1.67;;;;;;;;;;5026800;28;20218;-49
2022/05/28 08:04:21;;;;;;;3.57;1.60;;;;;;;;;;5020848;28;20212;-50
2022/05/28 08:06:47;;;;;;;2.33;1.63;;;;;;;;;;5023413;28;20170;-50
2022/05/28 08:09:13;;;;;;;3.67;1.73;;;;;;;;;;5024842;28;20231;-51
2022/05/28 08:11:40;;;;;;;4.00;1.70;;;;;;;;;;5003754;28;20266;-51
2022/05/28 08:14:06;;;;;;;5.10;1.83;;;;;;;;;;5021012;28;20212;-50
2022/05/28 08:16:33;;;;;;;5.20;1.90;;;;;;;;;;5020487;28;20178;-50
2022/05/28 08:18:59;;;;;;;6.03;1.83;;;;;;;;;;5018019;28;20276;-50
2022/05/28 08:24:10;;;;;;;3.10;1.33;;;;;;;;;;5016331;28;20174;-51
2022/05/28 08:26:39;;;;;;;3.47;2.03;;;;;;;;;;5028473;28;20190;-50
2022/05/28 08:29:05;;;;;;;3.53;1.50;;;;;;;;;;5003032;28;20175;-51
2022/05/28 08:31:31;;;;;;;2.37;1.30;;;;;;;;;;5022448;28;20263;-50
2022/05/28 08:33:58;;;;;;;2.47;1.53;;;;;;;;;;5025140;28;20677;-51
2022/05/28 08:36:24;;;;;;;1.90;1.43;;;;;;;;;;4998148;28;20550;-51
2022/05/28 08:38:51;;;;;;;6.37;1.80;;;;;;;;;;5021625;28;20182;-51
2022/05/28 08:41:17;;;;;;;2.23;1.60;;;;;;;;;;5027091;28;20233;-51
2022/05/28 08:43:55;;;;;;;2.80;2.30;;;;;;;;;;5018328;28;20557;-51
2022/05/28 08:46:23;;;;;;;4.30;1.73;;;;;;;;;;5025624;28;20219;-49
2022/05/28 08:48:51;;;;;;;3.33;1.60;;;;;;;;;;5001989;28;20179;-51
2022/05/28 08:51:22;;;;;;;2.77;1.47;;;;;;;;;;5010180;28;20565;-50
2022/05/28 08:54:08;;;;;;;2.13;1.60;;;;;;;;;;5030833;28;20581;-50
2022/05/28 08:56:37;;;;;;;4.00;1.87;;;;;;;;;;5013336;28;20270;-51
2022/05/28 08:59:14;;;;;;;2.10;1.50;;;;;;;;;;5005482;28;20188;-49
2022/05/28 09:01:44;;;;;;;3.77;1.80;;;;;;;;;;5009398;28;20201;-50
2022/05/28 09:04:12;;;;;;;2.90;1.90;;;;;;;;;;5002376;28;20269;-52
2022/05/28 09:06:44;;;;;;;4.10;1.90;;;;;;;;;;5022651;28;20272;-50
2022/05/28 09:09:12;;;;;;;3.27;2.00;;;;;;;;;;5000713;28;20277;-51
2022/05/28 09:11:41;;;;;;;7.43;2.10;;;;;;;;;;5027633;28;20229;-51
2022/05/28 09:14:10;;;;;;;5.03;1.90;;;;;;;;;;5024505;28;20223;-51
2022/05/28 09:16:37;;;;;;;6.10;1.70;;;;;;;;;;5030628;28;20250;-53
2022/05/28 09:19:12;;;;;;;7.23;2.00;;;;;;;;;;5030175;28;20521;-52
2022/05/28 09:21:39;;;;;;;3.33;2.37;;;;;;;;;;5008374;28;20217;-52
2022/05/28 09:24:07;;;;;;;6.30;2.00;;;;;;;;;;5020527;28;20704;-52
2022/05/28 09:26:51;;;;;;;2.60;1.90;;;;;;;;;;5007937;28;20606;-53
2022/05/28 09:29:17;;;;;;;3.73;1.97;;;;;;;;;;5001725;28;20186;-51
2022/05/28 09:31:56;;;;;;;5.47;1.73;;;;;;;;;;5024916;28;20674;-53
2022/05/28 09:34:28;;;;;;;5.57;1.90;;;;;;;;;;5019483;28;20186;-53
2022/05/28 09:36:54;;;;;;;6.27;1.80;;;;;;;;;;5007592;28;20193;-53
2022/05/28 09:39:27;;;;;;;2.77;2.00;;;;;;;;;;5005245;28;20180;-52
2022/05/28 09:41:58;;;;;;;2.77;1.60;;;;;;;;;;5027374;28;20662;-51
2022/05/28 09:44:27;;;;;;;3.70;1.57;;;;;;;;;;5012971;28;20170;-54
2022/05/28 09:46:53;;;;;;;4.18;1.90;;;;;;;;;;5025678;28;20428;-54
2022/05/28 09:49:21;;;;;;;2.57;2.00;;;;;;;;;;5004821;28;20311;-53
2022/05/28 09:51:53;;;;;;;6.50;2.07;;;;;;;;;;5023801;28;20624;-53
2022/05/28 09:54:21;;;;;;;9.40;2.53;;;;;;;;;;5022784;28;20540;-53
2022/05/28 09:57:09;;;;;;;4.50;2.17;;;;;;;;;;5022794;28;20193;-53
2022/05/28 09:59:38;;;;;;;6.27;2.00;;;;;;;;;;5003364;28;20648;-53
2022/05/28 10:02:08;;;;;;;5.73;1.90;;;;;;;;;;5022976;28;20235;-54
2022/05/28 10:04:49;;;;;;;6.30;2.10;;;;;;;;;;5024407;28;20265;-53
2022/05/28 10:07:15;;;;;;;4.40;1.80;;;;;;;;;;5024023;28;20186;-54
2022/05/28 10:09:49;;;;;;;4.47;2.83;;;;;;;;;;5022027;28;20256;-53
2022/05/28 10:12:22;;;;;;;3.90;1.93;;;;;;;;;;5016182;28;20212;-54
2022/05/28 10:15:09;;;;;;;4.53;1.97;;;;;;;;;;5027756;28;20887;-53
2022/05/28 10:17:36;;;;;;;3.00;1.90;;;;;;;;;;5007895;28;20205;-53
2022/05/28 10:20:04;;;;;;;6.17;2.23;;;;;;;;;;5024412;28;20197;-53
2022/05/28 10:22:30;;;;;;;4.20;2.23;;;;;;;;;;5023036;28;20576;-54
2022/05/28 10:24:58;;;;;;;3.87;1.97;;;;;;;;;;5023205;28;20178;-53
2022/05/28 10:27:34;;;;;;;3.57;2.20;;;;;;;;;;5013864;28;20179;-53
2022/05/28 10:30:02;;;;;;;4.37;2.17;;;;;;;;;;4998259;28;20432;-54
2022/05/28 10:32:49;;;;;;;3.97;1.80;;;;;;;;;;5004715;28;20182;-53
2022/05/28 10:35:23;;;;;;;3.90;2.03;;;;;;;;;;5019934;28;20186;-53
2022/05/28 10:37:49;;;;;;;5.40;1.70;;;;;;;;;;5008060;28;20205;-54
2022/05/28 10:40:21;;;;;;;5.17;1.90;;;;;;;;;;5010185;28;20241;-53
2022/05/28 10:42:47;;;;;;;5.97;2.43;;;;;;;;;;5023494;28;20190;-54
2022/05/28 10:45:16;;;;;;;7.50;2.33;;;;;;;;;;5019295;28;20688;-53
2022/05/28 10:48:01;;;;;;;5.77;2.53;;;;;;;;;;5005114;28;20460;-54
2022/05/28 10:50:39;;;;;;;2.93;1.83;;;;;;;;;;5017676;28;20194;-53
2022/05/28 10:53:21;;;;;;;5.90;2.17;;;;;;;;;;5013632;28;20231;-53
2022/05/28 10:55:56;;;;;;;4.03;1.73;;;;;;;;;;5018470;28;20907;-54
2022/05/28 10:58:31;;;;;;;6.07;2.57;;;;;;;;;;5019934;28;20544;-54
2022/05/28 11:01:01;;;;;;;2.93;1.93;;;;;;;;;;5005528;28;20601;-54
2022/05/28 11:03:45;;;;;;;3.63;2.07;;;;;;;;;;5002867;28;20289;-54
2022/05/28 11:06:31;;;;;;;8.23;2.40;;;;;;;;;;5021446;28;20177;-52
2022/05/28 11:08:57;;;;;;;3.60;2.00;;;;;;;;;;5020248;28;20216;-52
2022/05/28 11:11:37;;;;;;;5.00;1.90;;;;;;;;;;5024570;28;20671;-52
2022/05/28 11:14:22;;;;;;;6.77;2.10;;;;;;;;;;5020936;28;20197;-52
2022/05/28 11:17:07;;;;;;;6.87;2.20;;;;;;;;;;5005054;28;20722;-52
2022/05/28 11:19:44;;;;;;;3.60;1.67;;;;;;;;;;5020839;28;20611;-51
2022/05/28 11:22:20;;;;;;;2.47;1.80;;;;;;;;;;5001005;28;20201;-51
2022/05/28 11:24:53;;;;;;;3.47;1.80;;;;;;;;;;5015167;28;20186;-53
2022/05/28 11:27:23;;;;;;;6.20;1.90;;;;;;;;;;5004950;28;20239;-52
2022/05/28 11:29:55;;;;;;;4.43;1.67;;;;;;;;;;5021811;28;20200;-52
2022/05/28 11:32:24;;;;;;;4.33;1.80;;;;;;;;;;5020145;28;20190;-53
2022/05/28 11:35:05;;;;;;;2.60;1.80;;;;;;;;;;5019109;28;20547;-52
2022/05/28 11:37:42;;;;;;;4.40;1.80;;;;;;;;;;5000777;28;20177;-53
2022/05/28 11:40:23;;;;;;;4.33;1.63;;;;;;;;;;5021766;28;20169;-53
2022/05/28 11:42:54;;;;;;;4.60;1.90;;;;;;;;;;5020836;28;20247;-52
2022/05/28 11:45:25;;;;;;;5.07;2.43;;;;;;;;;;5016469;28;20645;-53
2022/05/28 11:48:10;;;;;;;5.20;2.10;;;;;;;;;;4985964;28;20221;-52
2022/05/28 11:53:47;;;;;;;3.63;2.00;;;;;;;;;;4996661;28;20687;-52
2022/05/28 11:56:15;;;;;;;9.03;2.40;;;;;;;;;;5017513;28;20182;-52
2022/05/28 11:58:56;;;;;;;5.73;2.17;;;;;;;;;;5002730;28;20702;-52
2022/05/28 12:01:27;;;;;;;4.67;3.03;;;;;;;;;;5003321;28;20213;-52
2022/05/28 12:03:53;;;;;;;5.20;1.87;;;;;;;;;;4990731;28;20220;-52
2022/05/28 12:06:20;;;;;;;7.50;2.20;;;;;;;;;;5023501;28;20191;-52
2022/05/28 12:09:05;;;;;;;6.63;2.33;;;;;;;;;;5029439;28;20202;-55
2022/05/28 12:11:31;;;;;;;5.80;2.23;;;;;;;;;;5036026;28;20229;-52
2022/05/28 12:13:59;;;;;;;4.30;2.17;;;;;;;;;;5024991;28;20719;-52
2022/05/28 12:16:30;;;;;;;5.07;2.23;;;;;;;;;;5008580;28;20272;-52
2022/05/28 12:19:01;;;;;;;4.37;1.87;;;;;;;;;;5006854;28;20178;-52
2022/05/28 12:21:32;;;;;;;4.40;2.03;;;;;;;;;;5023094;28;20667;-52
2022/05/28 12:24:28;;;;;;;2.53;2.10;;;;;;;;;;4997964;28;20185;-52
2022/05/28 12:27:12;;;;;;;3.23;2.00;;;;;;;;;;5010329;28;20286;-52
2022/05/28 12:29:45;;;;;;;3.07;2.00;;;;;;;;;;5000061;28;20200;-53
2022/05/28 12:32:14;;;;;;;4.00;1.97;;;;;;;;;;5009095;28;20624;-54
2022/05/28 12:34:51;;;;;;;3.33;1.73;;;;;;;;;;5025961;28;20186;-54
2022/05/28 12:37:20;;;;;;;7.03;2.17;;;;;;;;;;5028700;28;20646;-52
2022/05/28 12:40:09;;;;;;;7.47;2.37;;;;;;;;;;5016263;28;20185;-55
2022/05/28 12:42:36;;;;;;;5.10;2.00;;;;;;;;;;5006761;28;20283;-53
2022/05/28 12:45:14;;;;;;;6.30;2.20;;;;;;;;;;5026401;28;20162;-54
2022/05/28 12:47:40;;;;;;;4.50;2.17;;;;;;;;;;5008562;28;20284;-54
2022/05/28 12:50:21;;;;;;;5.83;2.13;;;;;;;;;;5024805;28;20170;-55
2022/05/28 12:52:56;;;;;;;7.23;2.00;;;;;;;;;;5020724;28;20191;-54
2022/05/28 12:55:36;;;;;;;3.97;1.80;;;;;;;;;;5015372;28;20188;-55
2022/05/28 12:58:09;;;;;;;3.70;1.90;;;;;;;;;;5004482;28;20217;-54
2022/05/28 13:00:41;;;;;;;5.00;2.00;;;;;;;;;;5017755;28;20208;-53
2022/05/28 13:03:08;;;;;;;4.63;1.90;;;;;;;;;;5019303;28;20292;-55
2022/05/28 13:05:42;;;;;;;3.17;2.33;;;;;;;;;;4991312;28;20181;-54
2022/05/28 13:08:08;;;;;;;8.07;2.57;;;;;;;;;;5016550;28;20182;-55
2022/05/28 13:10:34;;;;;;;3.53;2.23;;;;;;;;;;5020512;28;20255;-54
2022/05/28 13:13:06;;;;;;;3.83;2.30;;;;;;;;;;5005501;28;20182;-53
2022/05/28 13:15:50;;;;;;;6.00;1.93;;;;;;;;;;5014954;28;20185;-53
2022/05/28 13:18:31;;;;;;;6.77;2.40;;;;;;;;;;5015939;28;20678;-54
2022/05/28 13:21:06;;;;;;;3.93;2.00;;;;;;;;;;5015691;28;20206;-53
2022/05/28 13:23:51;;;;;;;4.87;2.20;;;;;;;;;;5013962;28;20367;-54
2022/05/28 13:26:32;;;;;;;6.40;1.97;;;;;;;;;;5003322;28;20340;-54
2022/05/28 13:28:58;;;;;;;3.03;1.97;;;;;;;;;;4999902;28;20182;-55
2022/05/28 13:31:28;;;;;;;4.70;2.10;;;;;;;;;;4997886;28;20187;-55
2022/05/28 13:33:54;;;;;;;5.93;2.37;;;;;;;;;;5021868;28;20186;-56
2022/05/28 13:36:20;;;;;;;5.07;1.93;;;;;;;;;;5018543;28;20188;-55
2022/05/28 13:38:51;;;;;;;4.80;2.10;;;;;;;;;;5006446;28;20674;-56
2022/05/28 13:41:40;;;;;;;4.33;2.10;;;;;;;;;;5026484;28;20461;-56
2022/05/28 13:44:09;;;;;;;5.07;2.80;;;;;;;;;;5003987;28;20661;-58
2022/05/28 13:46:36;;;;;;;3.83;2.40;;;;;;;;;;5006973;28;20935;-57
2022/05/28 13:49:05;;;;;;;5.97;2.13;;;;;;;;;;5017151;28;20190;-58
2022/05/28 13:51:32;;;;;;;3.80;2.13;;;;;;;;;;5010188;28;20267;-56
2022/05/28 13:54:17;;;;;;;5.93;2.57;;;;;;;;;;5008279;28;20200;-57
2022/05/28 13:56:51;;;;;;;5.50;2.23;;;;;;;;;;5021865;28;20197;-58
2022/05/28 13:59:27;;;;;;;7.37;3.20;;;;;;;;;;5005792;28;20191;-58
2022/05/28 14:01:53;;;;;;;5.27;2.23;;;;;;;;;;5023753;28;20208;-58
2022/05/28 14:04:21;;;;;;;5.87;3.37;;;;;;;;;;5013905;28;20491;-58
2022/05/28 14:06:53;;;;;;;7.63;2.40;;;;;;;;;;5017778;28;20194;-55
2022/05/28 14:09:20;;;;;;;6.33;2.23;;;;;;;;;;5005825;28;20179;-55
2022/05/28 14:11:49;;;;;;;6.85;2.38;;;;;;;;;;4987657;28;20805;-55
2022/05/28 14:14:22;;;;;;;5.13;2.20;;;;;;;;;;5020350;28;20213;-57
2022/05/28 14:16:50;;;;;;;3.67;2.17;;;;;;;;;;5024398;28;20226;-57
2022/05/28 14:19:20;;;;;;;4.93;2.60;;;;;;;;;;5002372;28;20190;-58
2022/05/28 14:21:52;;;;;;;4.87;2.20;;;;;;;;;;5000763;28;20491;-57
2022/05/28 14:24:20;;;;;;;3.53;2.30;;;;;;;;;;5015203;28;20190;-54
2022/05/28 14:26:54;;;;;;;5.93;2.30;;;;;;;;;;5021216;28;20175;-57
2022/05/28 14:29:22;;;;;;;2.90;2.20;;;;;;;;;;4996371;28;20616;-57
2022/05/28 14:31:49;;;;;;;4.80;2.13;;;;;;;;;;5026488;28;20186;-57
2022/05/28 14:34:17;;;;;;;5.70;2.23;;;;;;;;;;5024062;28;20177;-55
2022/05/28 14:36:49;;;;;;;4.70;2.90;;;;;;;;;;5023375;28;20182;-53
2022/05/28 14:39:16;;;;;;;7.23;2.23;;;;;;;;;;5012714;28;20336;-53
2022/05/28 14:41:51;;;;;;;4.60;2.23;;;;;;;;;;5007157;28;20644;-52
2022/05/28 14:44:19;;;;;;;7.37;2.53;;;;;;;;;;5015990;28;20224;-54
2022/05/28 14:46:46;;;;;;;9.27;2.70;;;;;;;;;;5007129;28;20255;-54
2022/05/28 14:49:28;;;;;;;3.87;2.17;;;;;;;;;;4999846;28;20187;-53
2022/05/28 14:52:07;;;;;;;5.13;2.57;;;;;;;;;;4995975;28;20249;-53
2022/05/28 14:54:36;;;;;;;6.03;2.43;;;;;;;;;;5001839;28;20182;-54
2022/05/28 14:57:04;;;;;;;5.53;2.70;;;;;;;;;;5000254;28;20804;-53
2022/05/28 14:59:37;;;;;;;5.90;2.60;;;;;;;;;;5001743;28;20700;-55
2022/05/28 15:02:17;;;;;;;2.63;2.20;;;;;;;;;;5002174;28;20659;-52
2022/05/28 15:04:43;;;;;;;3.80;2.17;;;;;;;;;;5015794;28;20189;-53
2022/05/28 15:07:21;;;;;;;4.90;2.20;;;;;;;;;;5017510;28;20182;-53
2022/05/28 15:09:48;;;;;;;7.50;2.80;;;;;;;;;;5019719;28;20201;-53